^^
Saratoga-Weather Station Historical Data
Daily Summary for June 15, 2021 Units:  Both    English   Metric
Daily Weekly Monthly Yearly Custom
  High: Low: Average:
Temperature: 84.9 °F /  29.4 °C 57.4 °F /  14.1 °C 68.7 °F /  20.4 °C
Dew Point: 61.9 °F /  16.6 °C 54.1 °F /  12.3 °C 57.2 °F /  14 °C
Humidity: 90% 41% 69%
Wind Speed: 4mph /  6.4km/h - 0.7mph /  1.1km/h
Wind Gust: 7mph /  11.3km/h - -
Wind- - SSE
Pressure: 30.1 in /  1018.0 hPa 30 in /  1016.6 hPa -
Precipitation: 0 in /  0.0 mm    
Historical Graphs
 
 
Tabular Data for June 15, 2021
Time Temperature Dew Point Pressure Wind Wind Speed Wind Gust Humidity Rainfall Rate (Hourly) solar
00:00 66.9 °F /  19.4 °C 56.5 °F /  13.6 °C 30in /  1016.9hPa SSW 0.9mph /  1.4km/h 1mph /  1.6km/h 69% 0in /  0.0mm 0 W/m2
00:05 66.9 °F /  19.4 °C 55.9 °F /  13.3 °C 30in /  1016.9hPa Calm     68% 0in /  0.0mm 0 W/m2
00:10 66.9 °F /  19.4 °C 56.5 °F /  13.6 °C 30in /  1016.9hPa SSW 0.9mph /  1.4km/h 1mph /  1.6km/h 69% 0in /  0.0mm 0 W/m2
00:15 66.7 °F /  19.3 °C 56.3 °F /  13.5 °C 30in /  1016.9hPa Calm   1mph /  1.6km/h 69% 0in /  0.0mm 0 W/m2
00:20 66.7 °F /  19.3 °C 56.3 °F /  13.5 °C 30in /  1016.9hPa Calm     69% 0in /  0.0mm 0 W/m2
00:25 66.6 °F /  19.2 °C 56.1 °F /  13.4 °C 30in /  1016.9hPa Calm     69% 0in /  0.0mm 0 W/m2
00:30 66.4 °F /  19.1 °C 56.3 °F /  13.5 °C 30in /  1016.9hPa Calm   1mph /  1.6km/h 70% 0in /  0.0mm 0 W/m2
00:35 66.6 °F /  19.2 °C 56.5 °F /  13.6 °C 30in /  1016.9hPa Calm     70% 0in /  0.0mm 0 W/m2
00:40 66.4 °F /  19.1 °C 56.3 °F /  13.5 °C 30in /  1016.9hPa Calm   1mph /  1.6km/h 70% 0in /  0.0mm 0 W/m2
00:45 66 °F /  18.9 °C 56.3 °F /  13.5 °C 30in /  1016.9hPa Calm     71% 0in /  0.0mm 0 W/m2
00:50 65.8 °F /  18.8 °C 56.1 °F /  13.4 °C 30in /  1016.9hPa Calm     71% 0in /  0.0mm 0 W/m2
00:55 65.5 °F /  18.6 °C 56.3 °F /  13.5 °C 30in /  1016.9hPa Calm     72% 0in /  0.0mm 0 W/m2
01:00 65.1 °F /  18.4 °C 56.3 °F /  13.5 °C 30in /  1016.9hPa Calm     73% 0in /  0.0mm 0 W/m2
01:05 64.9 °F /  18.3 °C 56.1 °F /  13.4 °C 30in /  1016.9hPa Calm     73% 0in /  0.0mm 0 W/m2
01:10 64.8 °F /  18.2 °C 55.9 °F /  13.3 °C 30in /  1016.9hPa Calm     73% 0in /  0.0mm 0 W/m2
01:15 64.4 °F /  18 °C 55.6 °F /  13.1 °C 30in /  1016.9hPa Calm     73% 0in /  0.0mm 0 W/m2
01:20 64.2 °F /  17.9 °C 55.8 °F /  13.2 °C 30in /  1016.9hPa SSW 0.9mph /  1.4km/h 1mph /  1.6km/h 74% 0in /  0.0mm 0 W/m2
01:25 64 °F /  17.8 °C 55.6 °F /  13.1 °C 30in /  1016.9hPa SSW 2mph /  3.2km/h 2mph /  3.2km/h 74% 0in /  0.0mm 0 W/m2
01:30 63.9 °F /  17.7 °C 55.8 °F /  13.2 °C 30in /  1016.9hPa SSW 0.9mph /  1.4km/h 1mph /  1.6km/h 75% 0in /  0.0mm 0 W/m2
01:35 63.7 °F /  17.6 °C 55.6 °F /  13.1 °C 30in /  1016.9hPa Calm   1mph /  1.6km/h 75% 0in /  0.0mm 0 W/m2
01:40 63.5 °F /  17.5 °C 55 °F /  12.8 °C 30in /  1016.9hPa Calm     74% 0in /  0.0mm 0 W/m2
01:45 63.3 °F /  17.4 °C 55.2 °F /  12.9 °C 30in /  1016.9hPa Calm   1mph /  1.6km/h 75% 0in /  0.0mm 0 W/m2
01:50 63.1 °F /  17.3 °C 55 °F /  12.8 °C 30in /  1016.9hPa Calm     75% 0in /  0.0mm 0 W/m2
01:55 63.1 °F /  17.3 °C 55 °F /  12.8 °C 30in /  1016.9hPa Calm     75% 0in /  0.0mm 0 W/m2
02:00 63.1 °F /  17.3 °C 55 °F /  12.8 °C 30in /  1016.9hPa Calm     75% 0in /  0.0mm 0 W/m2
02:05 63 °F /  17.2 °C 54.9 °F /  12.7 °C 30in /  1016.9hPa Calm     75% 0in /  0.0mm 0 W/m2
02:10 63 °F /  17.2 °C 54.9 °F /  12.7 °C 30in /  1016.9hPa Calm     75% 0in /  0.0mm 0 W/m2
02:15 62.8 °F /  17.1 °C 55 °F /  12.8 °C 30in /  1016.9hPa Calm     76% 0in /  0.0mm 0 W/m2
02:20 62.6 °F /  17 °C 54.9 °F /  12.7 °C 30in /  1016.9hPa Calm     76% 0in /  0.0mm 0 W/m2
02:25 62.4 °F /  16.9 °C 54.7 °F /  12.6 °C 30in /  1016.9hPa Calm   2mph /  3.2km/h 76% 0in /  0.0mm 0 W/m2
02:30 62.2 °F /  16.8 °C 54.5 °F /  12.5 °C 30in /  1016.9hPa Calm     76% 0in /  0.0mm 0 W/m2
02:35 62.1 °F /  16.7 °C 54.7 °F /  12.6 °C 30in /  1016.9hPa Calm   2mph /  3.2km/h 77% 0in /  0.0mm 0 W/m2
02:40 61.9 °F /  16.6 °C 54.7 °F /  12.6 °C 30in /  1016.9hPa Calm     77% 0in /  0.0mm 0 W/m2
02:45 61.7 °F /  16.5 °C 54.5 °F /  12.5 °C 30in /  1016.9hPa Calm     77% 0in /  0.0mm 0 W/m2
02:50 61.5 °F /  16.4 °C 54.7 °F /  12.6 °C 30in /  1016.9hPa Calm     78% 0in /  0.0mm 0 W/m2
02:55 61.5 °F /  16.4 °C 54.7 °F /  12.6 °C 30in /  1016.9hPa SSW 0.9mph /  1.4km/h 1mph /  1.6km/h 78% 0in /  0.0mm 0 W/m2
03:00 61.3 °F /  16.3 °C 54.5 °F /  12.5 °C 30in /  1016.9hPa Calm     78% 0in /  0.0mm 0 W/m2
03:05 61.3 °F /  16.3 °C 54.9 °F /  12.7 °C 30in /  1016.9hPa Calm     79% 0in /  0.0mm 0 W/m2
03:10 61.2 °F /  16.2 °C 54.7 °F /  12.6 °C 30in /  1016.9hPa Calm     79% 0in /  0.0mm 0 W/m2
03:15 61 °F /  16.1 °C 54.5 °F /  12.5 °C 30in /  1016.9hPa Calm     79% 0in /  0.0mm 0 W/m2
03:20 60.8 °F /  16 °C 54.7 °F /  12.6 °C 30in /  1016.9hPa Calm     80% 0in /  0.0mm 0 W/m2
03:25 60.6 °F /  15.9 °C 54.5 °F /  12.5 °C 30in /  1016.9hPa Calm     80% 0in /  0.0mm 0 W/m2
03:30 60.4 °F /  15.8 °C 54.5 °F /  12.5 °C 30in /  1016.9hPa Calm     81% 0in /  0.0mm 0 W/m2
03:35 60.3 °F /  15.7 °C 54.7 °F /  12.6 °C 30in /  1016.9hPa Calm     82% 0in /  0.0mm 0 W/m2
03:40 60.1 °F /  15.6 °C 54.5 °F /  12.5 °C 30in /  1016.9hPa Calm     82% 0in /  0.0mm 0 W/m2
03:45 60.1 °F /  15.6 °C 54.9 °F /  12.7 °C 30in /  1016.9hPa Calm     83% 0in /  0.0mm 0 W/m2
03:50 59.9 °F /  15.5 °C 54.7 °F /  12.6 °C 30in /  1016.9hPa Calm     83% 0in /  0.0mm 0 W/m2
03:55 59.7 °F /  15.4 °C 54.9 °F /  12.7 °C 30in /  1016.6hPa Calm     84% 0in /  0.0mm 0 W/m2
04:01 59.7 °F /  15.4 °C 54.9 °F /  12.7 °C 30in /  1016.6hPa Calm     84% 0in /  0.0mm 0 W/m2
04:06 59.5 °F /  15.3 °C 54.7 °F /  12.6 °C 30in /  1016.6hPa Calm     84% 0in /  0.0mm 0 W/m2
04:11 59.4 °F /  15.2 °C 54.5 °F /  12.5 °C 30in /  1016.6hPa Calm     84% 0in /  0.0mm 0 W/m2
04:16 59.4 °F /  15.2 °C 54.9 °F /  12.7 °C 30in /  1016.6hPa Calm     85% 0in /  0.0mm 0 W/m2
04:21 59.2 °F /  15.1 °C 54.3 °F /  12.4 °C 30in /  1016.6hPa Calm     84% 0in /  0.0mm 0 W/m2
04:26 59 °F /  15 °C 54.5 °F /  12.5 °C 30in /  1016.6hPa Calm     85% 0in /  0.0mm 0 W/m2
04:31 58.8 °F /  14.9 °C 54.3 °F /  12.4 °C 30in /  1016.6hPa Calm     85% 0in /  0.0mm 0 W/m2
04:36 58.8 °F /  14.9 °C 54.7 °F /  12.6 °C 30in /  1016.6hPa Calm     86% 0in /  0.0mm 0 W/m2
04:41 58.6 °F /  14.8 °C 54.5 °F /  12.5 °C 30in /  1016.6hPa Calm     86% 0in /  0.0mm 0 W/m2
04:51 58.5 °F /  14.7 °C 54.7 °F /  12.6 °C 30in /  1016.6hPa Calm     87% 0in /  0.0mm 0 W/m2
04:56 58.5 °F /  14.7 °C 54.7 °F /  12.6 °C 30in /  1016.6hPa Calm     87% 0in /  0.0mm 0 W/m2
05:01 58.3 °F /  14.6 °C 54.7 °F /  12.6 °C 30in /  1016.6hPa Calm     88% 0in /  0.0mm 0 W/m2
05:06 58.3 °F /  14.6 °C 54.5 °F /  12.5 °C 30in /  1016.6hPa Calm     87% 0in /  0.0mm 0 W/m2
05:11 58.1 °F /  14.5 °C 54.5 °F /  12.5 °C 30in /  1016.6hPa Calm     88% 0in /  0.0mm 0 W/m2
05:16 57.9 °F /  14.4 °C 54.3 °F /  12.4 °C 30in /  1016.6hPa Calm     88% 0in /  0.0mm 0 W/m2
05:21 57.9 °F /  14.4 °C 54.3 °F /  12.4 °C 30in /  1016.6hPa Calm     88% 0in /  0.0mm 0 W/m2
05:26 57.7 °F /  14.3 °C 54.1 °F /  12.3 °C 30in /  1016.6hPa Calm     88% 0in /  0.0mm 0 W/m2
05:31 57.7 °F /  14.3 °C 54.1 °F /  12.3 °C 30in /  1016.6hPa Calm     88% 0in /  0.0mm 0 W/m2
05:36 57.7 °F /  14.3 °C 54.1 °F /  12.3 °C 30in /  1016.6hPa Calm     88% 0in /  0.0mm 0 W/m2
05:41 57.6 °F /  14.2 °C 54.3 °F /  12.4 °C 30in /  1016.6hPa Calm     89% 0in /  0.0mm 5 W/m2
05:46 57.6 °F /  14.2 °C 54.3 °F /  12.4 °C 30in /  1016.6hPa Calm     89% 0in /  0.0mm 7 W/m2
05:51 57.6 °F /  14.2 °C 54.3 °F /  12.4 °C 30in /  1016.6hPa Calm     89% 0in /  0.0mm 11 W/m2
05:56 57.6 °F /  14.2 °C 54.3 °F /  12.4 °C 30in /  1016.6hPa Calm     89% 0in /  0.0mm 12 W/m2
06:01 57.4 °F /  14.1 °C 54.1 °F /  12.3 °C 30in /  1016.9hPa Calm     89% 0in /  0.0mm 14 W/m2
06:06 57.4 °F /  14.1 °C 54.5 °F /  12.5 °C 30in /  1016.9hPa Calm     90% 0in /  0.0mm 14 W/m2
06:11 57.4 °F /  14.1 °C 54.5 °F /  12.5 °C 30in /  1016.9hPa Calm     90% 0in /  0.0mm 16 W/m2
06:16 57.6 °F /  14.2 °C 54.7 °F /  12.6 °C 30in /  1016.9hPa Calm     90% 0in /  0.0mm 21 W/m2
06:21 57.7 °F /  14.3 °C 54.9 °F /  12.7 °C 30in /  1016.9hPa Calm     90% 0in /  0.0mm 21 W/m2
06:26 57.9 °F /  14.4 °C 55 °F /  12.8 °C 30in /  1016.9hPa Calm     90% 0in /  0.0mm 23 W/m2
06:31 58.1 °F /  14.5 °C 54.9 °F /  12.7 °C 30in /  1016.9hPa Calm     89% 0in /  0.0mm 25 W/m2
06:36 58.3 °F /  14.6 °C 55 °F /  12.8 °C 30in /  1016.9hPa Calm     89% 0in /  0.0mm 30 W/m2
06:41 58.3 °F /  14.6 °C 55 °F /  12.8 °C 30in /  1017.3hPa Calm     89% 0in /  0.0mm 30 W/m2
06:46 58.5 °F /  14.7 °C 55.2 °F /  12.9 °C 30in /  1017.3hPa Calm     89% 0in /  0.0mm 37 W/m2
06:51 58.5 °F /  14.7 °C 55.2 °F /  12.9 °C 30in /  1017.3hPa Calm     89% 0in /  0.0mm 46 W/m2
06:56 58.6 °F /  14.8 °C 55.4 °F /  13 °C 30in /  1017.3hPa Calm     89% 0in /  0.0mm 49 W/m2
07:01 58.8 °F /  14.9 °C 55.6 °F /  13.1 °C 30in /  1017.3hPa Calm     89% 0in /  0.0mm 54 W/m2
07:06 59.2 °F /  15.1 °C 55.6 °F /  13.1 °C 30in /  1017.3hPa SSW 0.9mph /  1.4km/h 1mph /  1.6km/h 88% 0in /  0.0mm 56 W/m2
07:11 59.7 °F /  15.4 °C 56.1 °F /  13.4 °C 30.1in /  1017.6hPa Calm     88% 0in /  0.0mm 63 W/m2
07:16 60.3 °F /  15.7 °C 56.1 °F /  13.4 °C 30.1in /  1017.6hPa SSW 0.9mph /  1.4km/h 2mph /  3.2km/h 86% 0in /  0.0mm 67 W/m2
07:21 60.6 °F /  15.9 °C 56.5 °F /  13.6 °C 30.1in /  1017.6hPa Calm     86% 0in /  0.0mm 69 W/m2
07:26 61.2 °F /  16.2 °C 56.7 °F /  13.7 °C 30.1in /  1017.6hPa SSW 0.9mph /  1.4km/h 2mph /  3.2km/h 85% 0in /  0.0mm 77 W/m2
07:31 61.5 °F /  16.4 °C 56.7 °F /  13.7 °C 30in /  1017.3hPa Calm   1mph /  1.6km/h 84% 0in /  0.0mm 81 W/m2
07:36 62.1 °F /  16.7 °C 56.5 °F /  13.6 °C 30.1in /  1017.6hPa Calm   2mph /  3.2km/h 82% 0in /  0.0mm 113 W/m2
07:41 62.8 °F /  17.1 °C 56.8 °F /  13.8 °C 30.1in /  1017.6hPa SW 0.9mph /  1.4km/h 1mph /  1.6km/h 81% 0in /  0.0mm 216 W/m2
07:46 63.1 °F /  17.3 °C 57.2 °F /  14 °C 30.1in /  1017.6hPa Calm   1mph /  1.6km/h 81% 0in /  0.0mm 181 W/m2
07:51 63.9 °F /  17.7 °C 57.6 °F /  14.2 °C 30.1in /  1017.6hPa Calm     80% 0in /  0.0mm 162 W/m2
07:56 64.2 °F /  17.9 °C 57.2 °F /  14 °C 30.1in /  1017.6hPa WNW 2mph /  3.2km/h 3mph /  4.8km/h 78% 0in /  0.0mm 171 W/m2
08:01 64.8 °F /  18.2 °C 57 °F /  13.9 °C 30.1in /  1017.6hPa WSW 2.9mph /  4.7km/h 3mph /  4.8km/h 76% 0in /  0.0mm 230 W/m2
08:06 65.5 °F /  18.6 °C 57.7 °F /  14.3 °C 30.1in /  1017.6hPa WSW 2mph /  3.2km/h 2mph /  3.2km/h 76% 0in /  0.0mm 255 W/m2
08:11 65.8 °F /  18.8 °C 57 °F /  13.9 °C 30.1in /  1017.6hPa Calm   2mph /  3.2km/h 73% 0in /  0.0mm 223 W/m2
08:16 66.4 °F /  19.1 °C 57.4 °F /  14.1 °C 30.1in /  1017.6hPa WNW 0.9mph /  1.4km/h 5mph /  8km/h 73% 0in /  0.0mm 144 W/m2
08:21 66.9 °F /  19.4 °C 57.6 °F /  14.2 °C 30.1in /  1018.0hPa WNW 2mph /  3.2km/h 4mph /  6.4km/h 72% 0in /  0.0mm 83 W/m2
08:26 67.1 °F /  19.5 °C 57.4 °F /  14.1 °C 30.1in /  1018.0hPa West 2.9mph /  4.7km/h 4mph /  6.4km/h 71% 0in /  0.0mm 77 W/m2
08:31 67.1 °F /  19.5 °C 57.4 °F /  14.1 °C 30.1in /  1018.0hPa NW 2.9mph /  4.7km/h 4mph /  6.4km/h 71% 0in /  0.0mm 86 W/m2
08:36 67.5 °F /  19.7 °C 58.1 °F /  14.5 °C 30.1in /  1018.0hPa WNW 0.9mph /  1.4km/h 2mph /  3.2km/h 72% 0in /  0.0mm 90 W/m2
08:41 68.2 °F /  20.1 °C 58.8 °F /  14.9 °C 30.1in /  1018.0hPa WNW 0.9mph /  1.4km/h 2mph /  3.2km/h 72% 0in /  0.0mm 93 W/m2
08:46 68.5 °F /  20.3 °C 58.3 °F /  14.6 °C 30.1in /  1018.0hPa NW 0.9mph /  1.4km/h 3mph /  4.8km/h 70% 0in /  0.0mm 98 W/m2
08:51 69.4 °F /  20.8 °C 58.5 °F /  14.7 °C 30.1in /  1018.0hPa Calm   3mph /  4.8km/h 68% 0in /  0.0mm 100 W/m2
08:56 70.3 °F /  21.3 °C 58.8 °F /  14.9 °C 30.1in /  1018.0hPa SSE 0.9mph /  1.4km/h 2mph /  3.2km/h 67% 0in /  0.0mm 105 W/m2
09:01 71.1 °F /  21.7 °C 59.2 °F /  15.1 °C 30.1in /  1018.0hPa ENE 0.9mph /  1.4km/h 2mph /  3.2km/h 66% 0in /  0.0mm 111 W/m2
09:06 71.4 °F /  21.9 °C 59.9 °F /  15.5 °C 30.1in /  1018.0hPa NNE 0.9mph /  1.4km/h 1mph /  1.6km/h 67% 0in /  0.0mm 121 W/m2
09:11 71.8 °F /  22.1 °C 59 °F /  15 °C 30.1in /  1017.6hPa East 0.9mph /  1.4km/h 2mph /  3.2km/h 64% 0in /  0.0mm 181 W/m2
09:17 71.8 °F /  22.1 °C 59 °F /  15 °C 30.1in /  1018.0hPa Calm   1mph /  1.6km/h 64% 0in /  0.0mm 325 W/m2
09:22 71.8 °F /  22.1 °C 59.4 °F /  15.2 °C 30.1in /  1017.6hPa Calm   2mph /  3.2km/h 65% 0in /  0.0mm 540 W/m2
09:27 72 °F /  22.2 °C 59.9 °F /  15.5 °C 30.1in /  1017.6hPa SE 2mph /  3.2km/h 3mph /  4.8km/h 66% 0in /  0.0mm 536 W/m2
09:32 72.7 °F /  22.6 °C 59.7 °F /  15.4 °C 30.1in /  1018.0hPa East 0.9mph /  1.4km/h 3mph /  4.8km/h 64% 0in /  0.0mm 575 W/m2
09:37 73.2 °F /  22.9 °C 59.9 °F /  15.5 °C 30.1in /  1017.6hPa ESE 4mph /  6.4km/h 4mph /  6.4km/h 63% 0in /  0.0mm 388 W/m2
09:42 73.2 °F /  22.9 °C 59.4 °F /  15.2 °C 30.1in /  1017.6hPa Calm   4mph /  6.4km/h 62% 0in /  0.0mm 399 W/m2
09:47 73.4 °F /  23 °C 59.5 °F /  15.3 °C 30.1in /  1017.6hPa NNE 0.9mph /  1.4km/h 4mph /  6.4km/h 62% 0in /  0.0mm 482 W/m2
09:52 73.8 °F /  23.2 °C 59.5 °F /  15.3 °C 30.1in /  1017.6hPa East 2mph /  3.2km/h 3mph /  4.8km/h 61% 0in /  0.0mm 427 W/m2
09:57 73.8 °F /  23.2 °C 59.5 °F /  15.3 °C 30.1in /  1017.6hPa ESE 2mph /  3.2km/h 2mph /  3.2km/h 61% 0in /  0.0mm 506 W/m2
10:02 73.9 °F /  23.3 °C 60.1 °F /  15.6 °C 30.1in /  1017.6hPa Calm   2mph /  3.2km/h 62% 0in /  0.0mm 411 W/m2
10:07 73.9 °F /  23.3 °C 59.2 °F /  15.1 °C 30.1in /  1017.6hPa East 0.9mph /  1.4km/h 4mph /  6.4km/h 60% 0in /  0.0mm 383 W/m2
10:12 74.3 °F /  23.5 °C 59.5 °F /  15.3 °C 30.1in /  1017.6hPa ENE 0.9mph /  1.4km/h 1mph /  1.6km/h 60% 0in /  0.0mm 209 W/m2
10:17 74.7 °F /  23.7 °C 59.9 °F /  15.5 °C 30.1in /  1017.6hPa Calm   2mph /  3.2km/h 60% 0in /  0.0mm 264 W/m2
10:22 75 °F /  23.9 °C 59.7 °F /  15.4 °C 30.1in /  1017.6hPa NE 2mph /  3.2km/h 4mph /  6.4km/h 59% 0in /  0.0mm 566 W/m2
10:27 75.6 °F /  24.2 °C 59.7 °F /  15.4 °C 30.1in /  1017.6hPa North 0.9mph /  1.4km/h 2mph /  3.2km/h 58% 0in /  0.0mm 617 W/m2
10:32 75.9 °F /  24.4 °C 59.5 °F /  15.3 °C 30.1in /  1017.6hPa ESE 0.9mph /  1.4km/h 4mph /  6.4km/h 57% 0in /  0.0mm 613 W/m2
10:37 76.5 °F /  24.7 °C 59.5 °F /  15.3 °C 30in /  1017.3hPa Calm   4mph /  6.4km/h 56% 0in /  0.0mm 313 W/m2
10:42 76.6 °F /  24.8 °C 59.2 °F /  15.1 °C 30.1in /  1017.6hPa NE 0.9mph /  1.4km/h 3mph /  4.8km/h 55% 0in /  0.0mm 564 W/m2
10:47 77.2 °F /  25.1 °C 58.3 °F /  14.6 °C 30.1in /  1017.6hPa NE 2mph /  3.2km/h 5mph /  8km/h 52% 0in /  0.0mm 615 W/m2
10:52 77.4 °F /  25.2 °C 59.4 °F /  15.2 °C 30.1in /  1017.6hPa Calm   3mph /  4.8km/h 54% 0in /  0.0mm 631 W/m2
10:57 77.7 °F /  25.4 °C 59.2 °F /  15.1 °C 30in /  1017.3hPa ESE 0.9mph /  1.4km/h 5mph /  8km/h 53% 0in /  0.0mm 631 W/m2
11:02 77.7 °F /  25.4 °C 58.6 °F /  14.8 °C 30in /  1017.3hPa NE 0.9mph /  1.4km/h 1mph /  1.6km/h 52% 0in /  0.0mm 605 W/m2
11:07 78.1 °F /  25.6 °C 58.5 °F /  14.7 °C 30in /  1017.3hPa South 0.9mph /  1.4km/h 2mph /  3.2km/h 51% 0in /  0.0mm 703 W/m2
11:12 78.6 °F /  25.9 °C 59 °F /  15 °C 30in /  1017.3hPa ENE 2mph /  3.2km/h 6mph /  9.7km/h 51% 0in /  0.0mm 759 W/m2
11:17 79.2 °F /  26.2 °C 60.1 °F /  15.6 °C 30.1in /  1017.6hPa ESE 0.9mph /  1.4km/h 3mph /  4.8km/h 52% 0in /  0.0mm 698 W/m2
11:22 79.5 °F /  26.4 °C 59.2 °F /  15.1 °C 30in /  1017.3hPa East 2mph /  3.2km/h 3mph /  4.8km/h 50% 0in /  0.0mm 657 W/m2
11:27 80.1 °F /  26.7 °C 59.7 °F /  15.4 °C 30in /  1017.3hPa Calm   3mph /  4.8km/h 50% 0in /  0.0mm 668 W/m2
11:32 80.4 °F /  26.9 °C 61.2 °F /  16.2 °C 30in /  1017.3hPa ESE 0.9mph /  1.4km/h 2mph /  3.2km/h 52% 0in /  0.0mm 759 W/m2
11:37 81 °F /  27.2 °C 60.6 °F /  15.9 °C 30in /  1017.3hPa Calm   4mph /  6.4km/h 50% 0in /  0.0mm 703 W/m2
11:42 81.1 °F /  27.3 °C 60.8 °F /  16 °C 30in /  1017.3hPa Calm   3mph /  4.8km/h 50% 0in /  0.0mm 654 W/m2
11:47 81.3 °F /  27.4 °C 61 °F /  16.1 °C 30in /  1017.3hPa Calm   1mph /  1.6km/h 50% 0in /  0.0mm 610 W/m2
11:52 81.5 °F /  27.5 °C 59.9 °F /  15.5 °C 30in /  1017.3hPa ENE 2.9mph /  4.7km/h 4mph /  6.4km/h 48% 0in /  0.0mm 638 W/m2
11:57 81.1 °F /  27.3 °C 59.5 °F /  15.3 °C 30in /  1017.3hPa SE 0.9mph /  1.4km/h 2mph /  3.2km/h 48% 0in /  0.0mm 689 W/m2
12:02 81.1 °F /  27.3 °C 61.9 °F /  16.6 °C 30in /  1017.3hPa ENE 2mph /  3.2km/h 4mph /  6.4km/h 52% 0in /  0.0mm 777 W/m2
12:07 81.5 °F /  27.5 °C 61 °F /  16.1 °C 30in /  1017.3hPa SSE 0.9mph /  1.4km/h 2mph /  3.2km/h 50% 0in /  0.0mm 830 W/m2
12:12 81.7 °F /  27.6 °C 60.6 °F /  15.9 °C 30in /  1017.3hPa ESE 0.9mph /  1.4km/h 4mph /  6.4km/h 49% 0in /  0.0mm 810 W/m2
12:17 81.7 °F /  27.6 °C 61.2 °F /  16.2 °C 30in /  1017.3hPa SE 2.9mph /  4.7km/h 3mph /  4.8km/h 50% 0in /  0.0mm 847 W/m2
12:22 82.2 °F /  27.9 °C 60.6 °F /  15.9 °C 30in /  1017.3hPa NE 0.9mph /  1.4km/h 3mph /  4.8km/h 48% 0in /  0.0mm 851 W/m2
12:27 82.6 °F /  28.1 °C 61.5 °F /  16.4 °C 30in /  1017.3hPa Calm   2mph /  3.2km/h 49% 0in /  0.0mm 844 W/m2
12:32 82.9 °F /  28.3 °C 60.6 °F /  15.9 °C 30in /  1017.3hPa SE 2mph /  3.2km/h 6mph /  9.7km/h 47% 0in /  0.0mm 835 W/m2
12:37 82.9 °F /  28.3 °C 61.9 °F /  16.6 °C 30in /  1016.9hPa NNW 2mph /  3.2km/h 2mph /  3.2km/h 49% 0in /  0.0mm 861 W/m2
12:42 82.9 °F /  28.3 °C 60.1 °F /  15.6 °C 30in /  1017.3hPa NNW 2mph /  3.2km/h 6mph /  9.7km/h 46% 0in /  0.0mm 891 W/m2
12:47 82.9 °F /  28.3 °C 60.1 °F /  15.6 °C 30in /  1016.9hPa East 2mph /  3.2km/h 5mph /  8km/h 46% 0in /  0.0mm 895 W/m2
12:52 83.1 °F /  28.4 °C 61.3 °F /  16.3 °C 30in /  1017.3hPa NNW 2mph /  3.2km/h 6mph /  9.7km/h 48% 0in /  0.0mm 905 W/m2
12:57 82.9 °F /  28.3 °C 59.4 °F /  15.2 °C 30in /  1016.9hPa West 0.9mph /  1.4km/h 2mph /  3.2km/h 45% 0in /  0.0mm 905 W/m2
13:02 83.5 °F /  28.6 °C 60.4 °F /  15.8 °C 30in /  1016.9hPa North 2.9mph /  4.7km/h 5mph /  8km/h 46% 0in /  0.0mm 891 W/m2
13:07 83.8 °F /  28.8 °C 60.3 °F /  15.7 °C 30in /  1016.9hPa North 2mph /  3.2km/h 6mph /  9.7km/h 45% 0in /  0.0mm 893 W/m2
13:12 84 °F /  28.9 °C 61 °F /  16.1 °C 30in /  1016.9hPa Calm   1mph /  1.6km/h 46% 0in /  0.0mm 928 W/m2
13:17 84.6 °F /  29.2 °C 60.3 °F /  15.7 °C 30in /  1016.9hPa West 0.9mph /  1.4km/h 6mph /  9.7km/h 44% 0in /  0.0mm 881 W/m2
13:22 84.9 °F /  29.4 °C 61.2 °F /  16.2 °C 30in /  1016.9hPa ESE 2.9mph /  4.7km/h 3mph /  4.8km/h 45% 0in /  0.0mm 926 W/m2
13:27 84.7 °F /  29.3 °C 59.7 °F /  15.4 °C 30in /  1016.9hPa East 2.9mph /  4.7km/h 5mph /  8km/h 43% 0in /  0.0mm 932 W/m2
13:32 84.9 °F /  29.4 °C 59.9 °F /  15.5 °C 30in /  1016.9hPa NNW 2.9mph /  4.7km/h 4mph /  6.4km/h 43% 0in /  0.0mm 937 W/m2
13:37 84.7 °F /  29.3 °C 59.7 °F /  15.4 °C 30in /  1016.9hPa ENE 2.9mph /  4.7km/h 3mph /  4.8km/h 43% 0in /  0.0mm 816 W/m2
13:42 84.4 °F /  29.1 °C 58.8 °F /  14.9 °C 30in /  1016.9hPa NNW 2.9mph /  4.7km/h 5mph /  8km/h 42% 0in /  0.0mm 788 W/m2
13:47 84.2 °F /  29 °C 57.9 °F /  14.4 °C 30in /  1016.9hPa ENE 0.9mph /  1.4km/h 5mph /  8km/h 41% 0in /  0.0mm 911 W/m2
13:52 84.2 °F /  29 °C 58.6 °F /  14.8 °C 30in /  1016.9hPa East 2mph /  3.2km/h 7mph /  11.3km/h 42% 0in /  0.0mm 954 W/m2
13:57 84.6 °F /  29.2 °C 59 °F /  15 °C 30in /  1016.9hPa East 0.9mph /  1.4km/h 4mph /  6.4km/h 42% 0in /  0.0mm 974 W/m2
14:02 84.9 °F /  29.4 °C 58.6 °F /  14.8 °C 30in /  1016.9hPa NE 0.9mph /  1.4km/h 6mph /  9.7km/h 41% 0in /  0.0mm 896 W/m2
14:07 84.6 °F /  29.2 °C 60.3 °F /  15.7 °C 30in /  1016.6hPa SE 0.9mph /  1.4km/h 3mph /  4.8km/h 44% 0in /  0.0mm 666 W/m2
14:12 84.6 °F /  29.2 °C 59 °F /  15 °C 30in /  1016.6hPa East 2mph /  3.2km/h 4mph /  6.4km/h 42% 0in /  0.0mm 742 W/m2
14:17 84.6 °F /  29.2 °C 59 °F /  15 °C 30in /  1016.6hPa East 2mph /  3.2km/h 3mph /  4.8km/h 42% 0in /  0.0mm 715 W/m2
14:22 84.6 °F /  29.2 °C 59 °F /  15 °C 30in /  1016.6hPa Calm   4mph /  6.4km/h 42% 0in /  0.0mm 835 W/m2
14:27 84.6 °F /  29.2 °C 59.5 °F /  15.3 °C 30in /  1016.6hPa Calm   3mph /  4.8km/h 43% 0in /  0.0mm 875 W/m2
14:33 84.4 °F /  29.1 °C 58.1 °F /  14.5 °C 30in /  1016.6hPa NW 2mph /  3.2km/h 2mph /  3.2km/h 41% 0in /  0.0mm 795 W/m2
Juneau County Weather
Compliments of Weather Underground - 2 mb